sensor_id;sensor_type;location;lat;lon;timestamp;P1;durP1;ratioP1;P2;durP2;ratioP2
18726;SDS011;9492;51.888;5.186;2023-04-24T00:01:57;1.37;;;1.27;;
18726;SDS011;9492;51.888;5.186;2023-04-24T00:04:23;1.87;;;1.30;;
18726;SDS011;9492;51.888;5.186;2023-04-24T00:06:51;1.70;;;0.97;;
18726;SDS011;9492;51.888;5.186;2023-04-24T00:09:19;1.70;;;0.93;;
18726;SDS011;9492;51.888;5.186;2023-04-24T00:11:47;1.70;;;0.90;;
18726;SDS011;9492;51.888;5.186;2023-04-24T00:14:13;1.07;;;1.07;;
18726;SDS011;9492;51.888;5.186;2023-04-24T00:16:39;1.60;;;1.30;;
18726;SDS011;9492;51.888;5.186;2023-04-24T00:19:05;1.10;;;1.10;;
18726;SDS011;9492;51.888;5.186;2023-04-24T00:21:31;1.00;;;1.00;;
18726;SDS011;9492;51.888;5.186;2023-04-24T00:23:58;0.40;;;0.40;;
18726;SDS011;9492;51.888;5.186;2023-04-24T00:26:24;0.77;;;0.50;;
18726;SDS011;9492;51.888;5.186;2023-04-24T00:28:50;0.40;;;0.40;;
18726;SDS011;9492;51.888;5.186;2023-04-24T00:31:16;0.30;;;0.30;;
18726;SDS011;9492;51.888;5.186;2023-04-24T00:33:43;0.40;;;0.40;;
18726;SDS011;9492;51.888;5.186;2023-04-24T00:36:09;0.40;;;0.40;;
18726;SDS011;9492;51.888;5.186;2023-04-24T00:38:35;0.50;;;0.50;;
18726;SDS011;9492;51.888;5.186;2023-04-24T00:41:01;0.50;;;0.50;;
18726;SDS011;9492;51.888;5.186;2023-04-24T00:43:27;0.50;;;0.50;;
18726;SDS011;9492;51.888;5.186;2023-04-24T00:45:53;0.60;;;0.60;;
18726;SDS011;9492;51.888;5.186;2023-04-24T00:48:20;0.97;;;0.50;;
18726;SDS011;9492;51.888;5.186;2023-04-24T00:50:46;0.97;;;0.50;;
18726;SDS011;9492;51.888;5.186;2023-04-24T00:53:12;0.70;;;0.50;;
18726;SDS011;9492;51.888;5.186;2023-04-24T00:55:38;0.60;;;0.60;;
18726;SDS011;9492;51.888;5.186;2023-04-24T00:58:04;1.50;;;0.40;;
18726;SDS011;9492;51.888;5.186;2023-04-24T01:00:30;0.50;;;0.50;;
18726;SDS011;9492;51.888;5.186;2023-04-24T01:02:57;0.57;;;0.57;;
18726;SDS011;9492;51.888;5.186;2023-04-24T01:05:24;1.07;;;0.70;;
18726;SDS011;9492;51.888;5.186;2023-04-24T01:07:51;1.03;;;1.03;;
18726;SDS011;9492;51.888;5.186;2023-04-24T01:10:17;0.80;;;0.80;;
18726;SDS011;9492;51.888;5.186;2023-04-24T01:12:45;1.93;;;1.40;;
18726;SDS011;9492;51.888;5.186;2023-04-24T01:15:11;2.43;;;1.73;;
18726;SDS011;9492;51.888;5.186;2023-04-24T01:17:37;2.33;;;1.73;;
18726;SDS011;9492;51.888;5.186;2023-04-24T01:20:05;2.00;;;1.90;;
18726;SDS011;9492;51.888;5.186;2023-04-24T01:22:32;2.43;;;2.23;;
18726;SDS011;9492;51.888;5.186;2023-04-24T01:24:59;3.60;;;2.40;;
18726;SDS011;9492;51.888;5.186;2023-04-24T01:27:25;3.10;;;2.80;;
18726;SDS011;9492;51.888;5.186;2023-04-24T01:29:51;2.63;;;2.43;;
18726;SDS011;9492;51.888;5.186;2023-04-24T01:32:18;3.67;;;2.73;;
18726;SDS011;9492;51.888;5.186;2023-04-24T01:34:44;3.07;;;2.73;;
18726;SDS011;9492;51.888;5.186;2023-04-24T01:37:10;3.80;;;3.50;;
18726;SDS011;9492;51.888;5.186;2023-04-24T01:39:37;4.23;;;3.80;;
18726;SDS011;9492;51.888;5.186;2023-04-24T01:42:03;5.47;;;4.87;;
18726;SDS011;9492;51.888;5.186;2023-04-24T01:44:30;5.30;;;4.53;;
18726;SDS011;9492;51.888;5.186;2023-04-24T01:46:56;8.33;;;5.20;;
18726;SDS011;9492;51.888;5.186;2023-04-24T01:49:22;5.83;;;4.30;;
18726;SDS011;9492;51.888;5.186;2023-04-24T01:51:48;5.13;;;4.63;;
18726;SDS011;9492;51.888;5.186;2023-04-24T01:54:14;7.40;;;5.60;;
18726;SDS011;9492;51.888;5.186;2023-04-24T01:56:41;6.40;;;5.10;;
18726;SDS011;9492;51.888;5.186;2023-04-24T01:59:07;6.60;;;5.30;;
18726;SDS011;9492;51.888;5.186;2023-04-24T02:01:35;6.73;;;4.43;;
18726;SDS011;9492;51.888;5.186;2023-04-24T02:04:01;6.03;;;5.43;;
18726;SDS011;9492;51.888;5.186;2023-04-24T02:06:27;4.47;;;3.90;;
18726;SDS011;9492;51.888;5.186;2023-04-24T02:08:53;5.13;;;4.60;;
18726;SDS011;9492;51.888;5.186;2023-04-24T02:11:19;4.17;;;3.70;;
18726;SDS011;9492;51.888;5.186;2023-04-24T02:13:45;4.67;;;3.40;;
18726;SDS011;9492;51.888;5.186;2023-04-24T02:16:11;3.30;;;2.90;;
18726;SDS011;9492;51.888;5.186;2023-04-24T02:18:37;5.73;;;3.47;;
18726;SDS011;9492;51.888;5.186;2023-04-24T02:21:03;3.30;;;3.00;;
18726;SDS011;9492;51.888;5.186;2023-04-24T02:23:29;3.43;;;3.13;;
18726;SDS011;9492;51.888;5.186;2023-04-24T02:25:55;4.20;;;3.03;;
18726;SDS011;9492;51.888;5.186;2023-04-24T02:28:21;3.33;;;2.93;;
18726;SDS011;9492;51.888;5.186;2023-04-24T02:30:47;4.63;;;3.73;;
18726;SDS011;9492;51.888;5.186;2023-04-24T02:33:13;4.47;;;4.07;;
18726;SDS011;9492;51.888;5.186;2023-04-24T02:35:39;4.20;;;3.80;;
18726;SDS011;9492;51.888;5.186;2023-04-24T02:38:05;6.67;;;4.13;;
18726;SDS011;9492;51.888;5.186;2023-04-24T02:40:31;5.40;;;4.73;;
18726;SDS011;9492;51.888;5.186;2023-04-24T02:42:57;4.90;;;4.50;;
18726;SDS011;9492;51.888;5.186;2023-04-24T02:45:23;4.90;;;3.93;;
18726;SDS011;9492;51.888;5.186;2023-04-24T02:47:49;5.80;;;5.13;;
18726;SDS011;9492;51.888;5.186;2023-04-24T02:50:15;7.23;;;5.60;;
18726;SDS011;9492;51.888;5.186;2023-04-24T02:52:41;10.53;;;7.97;;
18726;SDS011;9492;51.888;5.186;2023-04-24T02:55:07;9.93;;;8.00;;
18726;SDS011;9492;51.888;5.186;2023-04-24T02:57:33;12.23;;;9.17;;
18726;SDS011;9492;51.888;5.186;2023-04-24T02:59:59;11.77;;;8.63;;
18726;SDS011;9492;51.888;5.186;2023-04-24T03:02:25;10.93;;;8.17;;
18726;SDS011;9492;51.888;5.186;2023-04-24T03:04:51;11.80;;;8.77;;
18726;SDS011;9492;51.888;5.186;2023-04-24T03:07:17;14.73;;;9.87;;
18726;SDS011;9492;51.888;5.186;2023-04-24T03:09:45;12.80;;;9.43;;
18726;SDS011;9492;51.888;5.186;2023-04-24T03:12:12;15.83;;;9.30;;
18726;SDS011;9492;51.888;5.186;2023-04-24T03:14:38;9.90;;;7.83;;
18726;SDS011;9492;51.888;5.186;2023-04-24T03:17:04;14.47;;;8.47;;
18726;SDS011;9492;51.888;5.186;2023-04-24T03:19:30;11.50;;;8.13;;
18726;SDS011;9492;51.888;5.186;2023-04-24T03:21:56;9.97;;;8.47;;
18726;SDS011;9492;51.888;5.186;2023-04-24T03:24:22;9.73;;;8.17;;
18726;SDS011;9492;51.888;5.186;2023-04-24T03:26:48;11.47;;;8.63;;
18726;SDS011;9492;51.888;5.186;2023-04-24T03:29:14;9.27;;;7.90;;
18726;SDS011;9492;51.888;5.186;2023-04-24T03:31:40;11.73;;;9.23;;
18726;SDS011;9492;51.888;5.186;2023-04-24T03:34:06;8.73;;;7.80;;
18726;SDS011;9492;51.888;5.186;2023-04-24T03:36:32;9.80;;;7.77;;
18726;SDS011;9492;51.888;5.186;2023-04-24T03:38:58;13.83;;;8.57;;
18726;SDS011;9492;51.888;5.186;2023-04-24T03:41:24;9.77;;;7.20;;
18726;SDS011;9492;51.888;5.186;2023-04-24T03:43:50;9.90;;;7.50;;
18726;SDS011;9492;51.888;5.186;2023-04-24T03:46:16;10.13;;;7.30;;
18726;SDS011;9492;51.888;5.186;2023-04-24T03:48:42;7.57;;;5.90;;
18726;SDS011;9492;51.888;5.186;2023-04-24T03:51:08;8.33;;;5.87;;
18726;SDS011;9492;51.888;5.186;2023-04-24T03:53:34;6.37;;;5.73;;
18726;SDS011;9492;51.888;5.186;2023-04-24T03:56:00;4.93;;;4.23;;
18726;SDS011;9492;51.888;5.186;2023-04-24T03:58:26;4.57;;;3.23;;
18726;SDS011;9492;51.888;5.186;2023-04-24T04:00:52;3.70;;;3.00;;
18726;SDS011;9492;51.888;5.186;2023-04-24T04:03:18;2.93;;;2.57;;
18726;SDS011;9492;51.888;5.186;2023-04-24T04:05:44;3.43;;;2.67;;
18726;SDS011;9492;51.888;5.186;2023-04-24T04:08:10;6.67;;;2.50;;
18726;SDS011;9492;51.888;5.186;2023-04-24T04:10:36;3.17;;;2.90;;
18726;SDS011;9492;51.888;5.186;2023-04-24T04:13:02;3.17;;;2.90;;
18726;SDS011;9492;51.888;5.186;2023-04-24T04:15:28;3.67;;;2.33;;
18726;SDS011;9492;51.888;5.186;2023-04-24T04:17:54;2.33;;;2.13;;
18726;SDS011;9492;51.888;5.186;2023-04-24T04:20:20;2.30;;;2.10;;
18726;SDS011;9492;51.888;5.186;2023-04-24T04:22:46;2.83;;;2.50;;
18726;SDS011;9492;51.888;5.186;2023-04-24T04:25:12;4.53;;;2.20;;
18726;SDS011;9492;51.888;5.186;2023-04-24T04:27:38;2.80;;;2.10;;
18726;SDS011;9492;51.888;5.186;2023-04-24T04:30:06;2.70;;;2.10;;
18726;SDS011;9492;51.888;5.186;2023-04-24T04:32:34;1.90;;;1.70;;
18726;SDS011;9492;51.888;5.186;2023-04-24T04:35:01;2.00;;;1.80;;
18726;SDS011;9492;51.888;5.186;2023-04-24T04:37:30;1.80;;;1.70;;
18726;SDS011;9492;51.888;5.186;2023-04-24T04:39:59;2.10;;;1.60;;
18726;SDS011;9492;51.888;5.186;2023-04-24T04:42:26;1.87;;;1.77;;
18726;SDS011;9492;51.888;5.186;2023-04-24T04:44:53;2.60;;;1.90;;
18726;SDS011;9492;51.888;5.186;2023-04-24T04:47:20;2.43;;;1.83;;
18726;SDS011;9492;51.888;5.186;2023-04-24T04:49:48;2.10;;;1.90;;
18726;SDS011;9492;51.888;5.186;2023-04-24T04:52:16;2.00;;;1.80;;
18726;SDS011;9492;51.888;5.186;2023-04-24T04:54:42;2.40;;;2.20;;
18726;SDS011;9492;51.888;5.186;2023-04-24T04:57:08;2.67;;;2.47;;
18726;SDS011;9492;51.888;5.186;2023-04-24T04:59:34;2.20;;;1.63;;
18726;SDS011;9492;51.888;5.186;2023-04-24T05:02:00;2.00;;;1.90;;
18726;SDS011;9492;51.888;5.186;2023-04-24T05:04:26;2.40;;;2.17;;
18726;SDS011;9492;51.888;5.186;2023-04-24T05:06:52;1.80;;;1.70;;
18726;SDS011;9492;51.888;5.186;2023-04-24T05:09:18;1.47;;;1.37;;
18726;SDS011;9492;51.888;5.186;2023-04-24T05:11:44;1.37;;;1.27;;
18726;SDS011;9492;51.888;5.186;2023-04-24T05:14:10;1.30;;;1.20;;
18726;SDS011;9492;51.888;5.186;2023-04-24T05:16:37;1.60;;;1.50;;
18726;SDS011;9492;51.888;5.186;2023-04-24T05:19:03;1.50;;;1.40;;
18726;SDS011;9492;51.888;5.186;2023-04-24T05:21:29;3.43;;;1.53;;
18726;SDS011;9492;51.888;5.186;2023-04-24T05:23:56;3.57;;;1.23;;
18726;SDS011;9492;51.888;5.186;2023-04-24T05:26:22;1.87;;;1.30;;
18726;SDS011;9492;51.888;5.186;2023-04-24T05:28:48;1.43;;;1.10;;
18726;SDS011;9492;51.888;5.186;2023-04-24T05:31:14;1.73;;;1.20;;
18726;SDS011;9492;51.888;5.186;2023-04-24T05:33:42;1.43;;;1.33;;
18726;SDS011;9492;51.888;5.186;2023-04-24T05:36:08;1.40;;;1.30;;
18726;SDS011;9492;51.888;5.186;2023-04-24T05:38:35;3.17;;;1.40;;
18726;SDS011;9492;51.888;5.186;2023-04-24T05:41:01;1.47;;;1.37;;
18726;SDS011;9492;51.888;5.186;2023-04-24T05:43:27;1.93;;;1.30;;
18726;SDS011;9492;51.888;5.186;2023-04-24T05:45:53;1.67;;;1.57;;
18726;SDS011;9492;51.888;5.186;2023-04-24T05:48:19;1.50;;;1.37;;
18726;SDS011;9492;51.888;5.186;2023-04-24T05:50:45;1.77;;;1.67;;
18726;SDS011;9492;51.888;5.186;2023-04-24T05:53:12;1.40;;;1.30;;
18726;SDS011;9492;51.888;5.186;2023-04-24T05:55:39;1.40;;;1.30;;
18726;SDS011;9492;51.888;5.186;2023-04-24T05:58:05;1.10;;;1.10;;
18726;SDS011;9492;51.888;5.186;2023-04-24T06:00:31;2.37;;;1.20;;
18726;SDS011;9492;51.888;5.186;2023-04-24T06:02:58;1.23;;;1.13;;
18726;SDS011;9492;51.888;5.186;2023-04-24T06:05:23;1.53;;;1.17;;
18726;SDS011;9492;51.888;5.186;2023-04-24T06:07:50;1.20;;;1.20;;
18726;SDS011;9492;51.888;5.186;2023-04-24T06:10:16;1.30;;;1.20;;
18726;SDS011;9492;51.888;5.186;2023-04-24T06:12:42;0.90;;;0.90;;
18726;SDS011;9492;51.888;5.186;2023-04-24T06:15:08;1.27;;;0.90;;
18726;SDS011;9492;51.888;5.186;2023-04-24T06:17:34;2.00;;;1.10;;
18726;SDS011;9492;51.888;5.186;2023-04-24T06:20:00;1.40;;;1.00;;
18726;SDS011;9492;51.888;5.186;2023-04-24T06:22:29;1.00;;;1.00;;
18726;SDS011;9492;51.888;5.186;2023-04-24T06:24:55;2.13;;;1.20;;
18726;SDS011;9492;51.888;5.186;2023-04-24T06:27:21;1.63;;;1.53;;
18726;SDS011;9492;51.888;5.186;2023-04-24T06:29:48;3.77;;;2.30;;
18726;SDS011;9492;51.888;5.186;2023-04-24T06:32:19;5.20;;;3.70;;
18726;SDS011;9492;51.888;5.186;2023-04-24T06:34:45;4.90;;;3.83;;
18726;SDS011;9492;51.888;5.186;2023-04-24T06:37:11;5.67;;;4.30;;
18726;SDS011;9492;51.888;5.186;2023-04-24T06:39:37;6.50;;;4.33;;
18726;SDS011;9492;51.888;5.186;2023-04-24T06:42:03;6.87;;;4.47;;
18726;SDS011;9492;51.888;5.186;2023-04-24T06:44:29;5.17;;;4.50;;
18726;SDS011;9492;51.888;5.186;2023-04-24T06:46:55;6.77;;;5.30;;
18726;SDS011;9492;51.888;5.186;2023-04-24T06:49:21;6.73;;;5.60;;
18726;SDS011;9492;51.888;5.186;2023-04-24T06:51:47;8.00;;;5.90;;
18726;SDS011;9492;51.888;5.186;2023-04-24T06:54:13;10.20;;;6.27;;
18726;SDS011;9492;51.888;5.186;2023-04-24T06:56:39;8.27;;;5.47;;
18726;SDS011;9492;51.888;5.186;2023-04-24T06:59:05;7.27;;;6.17;;
18726;SDS011;9492;51.888;5.186;2023-04-24T07:01:31;10.77;;;6.20;;
18726;SDS011;9492;51.888;5.186;2023-04-24T07:03:57;8.97;;;5.73;;
18726;SDS011;9492;51.888;5.186;2023-04-24T07:06:23;12.13;;;5.57;;
18726;SDS011;9492;51.888;5.186;2023-04-24T07:08:49;11.10;;;5.83;;
18726;SDS011;9492;51.888;5.186;2023-04-24T07:11:15;10.93;;;5.70;;
18726;SDS011;9492;51.888;5.186;2023-04-24T07:13:41;12.70;;;6.33;;
18726;SDS011;9492;51.888;5.186;2023-04-24T07:16:07;10.73;;;5.43;;
18726;SDS011;9492;51.888;5.186;2023-04-24T07:18:33;11.60;;;5.80;;
18726;SDS011;9492;51.888;5.186;2023-04-24T07:20:59;9.03;;;5.37;;
18726;SDS011;9492;51.888;5.186;2023-04-24T07:23:25;16.40;;;5.67;;
18726;SDS011;9492;51.888;5.186;2023-04-24T07:25:52;12.70;;;5.30;;
18726;SDS011;9492;51.888;5.186;2023-04-24T07:28:18;16.50;;;5.90;;
18726;SDS011;9492;51.888;5.186;2023-04-24T07:30:44;14.23;;;4.97;;
18726;SDS011;9492;51.888;5.186;2023-04-24T07:33:10;9.83;;;5.33;;
18726;SDS011;9492;51.888;5.186;2023-04-24T07:35:38;10.87;;;4.97;;
18726;SDS011;9492;51.888;5.186;2023-04-24T07:38:04;10.97;;;4.60;;
18726;SDS011;9492;51.888;5.186;2023-04-24T07:40:30;14.67;;;4.67;;
18726;SDS011;9492;51.888;5.186;2023-04-24T07:42:56;11.83;;;5.17;;
18726;SDS011;9492;51.888;5.186;2023-04-24T07:45:22;15.30;;;5.00;;
18726;SDS011;9492;51.888;5.186;2023-04-24T07:47:49;14.80;;;4.67;;
18726;SDS011;9492;51.888;5.186;2023-04-24T07:50:15;11.77;;;5.13;;
18726;SDS011;9492;51.888;5.186;2023-04-24T07:52:41;18.27;;;4.80;;
18726;SDS011;9492;51.888;5.186;2023-04-24T07:55:07;9.77;;;3.50;;
18726;SDS011;9492;51.888;5.186;2023-04-24T07:57:33;16.40;;;4.30;;
18726;SDS011;9492;51.888;5.186;2023-04-24T07:59:59;11.37;;;4.10;;
18726;SDS011;9492;51.888;5.186;2023-04-24T08:02:25;10.17;;;3.17;;
18726;SDS011;9492;51.888;5.186;2023-04-24T08:04:55;13.30;;;4.23;;
18726;SDS011;9492;51.888;5.186;2023-04-24T08:07:21;13.13;;;3.60;;
18726;SDS011;9492;51.888;5.186;2023-04-24T08:09:47;9.80;;;3.53;;
18726;SDS011;9492;51.888;5.186;2023-04-24T08:12:13;15.23;;;3.70;;
18726;SDS011;9492;51.888;5.186;2023-04-24T08:14:39;11.27;;;3.23;;
18726;SDS011;9492;51.888;5.186;2023-04-24T08:17:05;12.93;;;3.90;;
18726;SDS011;9492;51.888;5.186;2023-04-24T08:19:31;7.87;;;3.00;;
18726;SDS011;9492;51.888;5.186;2023-04-24T08:21:57;8.20;;;2.20;;
18726;SDS011;9492;51.888;5.186;2023-04-24T08:24:23;7.10;;;2.50;;
18726;SDS011;9492;51.888;5.186;2023-04-24T08:26:49;9.93;;;2.77;;
18726;SDS011;9492;51.888;5.186;2023-04-24T08:29:16;9.40;;;3.27;;
18726;SDS011;9492;51.888;5.186;2023-04-24T08:31:42;8.37;;;2.67;;
18726;SDS011;9492;51.888;5.186;2023-04-24T08:34:09;7.53;;;2.80;;
18726;SDS011;9492;51.888;5.186;2023-04-24T08:36:35;12.80;;;4.10;;
18726;SDS011;9492;51.888;5.186;2023-04-24T08:39:01;11.40;;;3.47;;
18726;SDS011;9492;51.888;5.186;2023-04-24T08:41:27;8.53;;;2.93;;
18726;SDS011;9492;51.888;5.186;2023-04-24T08:43:53;9.20;;;2.50;;
18726;SDS011;9492;51.888;5.186;2023-04-24T08:46:20;6.70;;;2.47;;
18726;SDS011;9492;51.888;5.186;2023-04-24T08:48:46;11.73;;;3.37;;
18726;SDS011;9492;51.888;5.186;2023-04-24T08:51:12;11.23;;;3.07;;
18726;SDS011;9492;51.888;5.186;2023-04-24T08:53:40;6.80;;;2.53;;
18726;SDS011;9492;51.888;5.186;2023-04-24T08:56:06;8.13;;;2.90;;
18726;SDS011;9492;51.888;5.186;2023-04-24T08:58:32;5.77;;;2.20;;
18726;SDS011;9492;51.888;5.186;2023-04-24T09:00:58;6.93;;;2.07;;
18726;SDS011;9492;51.888;5.186;2023-04-24T09:03:26;5.60;;;2.33;;
18726;SDS011;9492;51.888;5.186;2023-04-24T09:05:52;10.30;;;2.80;;
18726;SDS011;9492;51.888;5.186;2023-04-24T09:08:20;10.57;;;3.33;;
18726;SDS011;9492;51.888;5.186;2023-04-24T09:10:48;9.17;;;3.30;;
18726;SDS011;9492;51.888;5.186;2023-04-24T09:13:14;9.27;;;2.60;;
18726;SDS011;9492;51.888;5.186;2023-04-24T09:15:40;10.60;;;3.10;;
18726;SDS011;9492;51.888;5.186;2023-04-24T09:18:06;8.93;;;2.27;;
18726;SDS011;9492;51.888;5.186;2023-04-24T09:20:32;4.57;;;2.60;;
18726;SDS011;9492;51.888;5.186;2023-04-24T09:23:01;7.97;;;2.30;;
18726;SDS011;9492;51.888;5.186;2023-04-24T09:25:31;7.07;;;2.40;;
18726;SDS011;9492;51.888;5.186;2023-04-24T09:28:00;6.10;;;2.00;;
18726;SDS011;9492;51.888;5.186;2023-04-24T09:30:26;7.70;;;2.67;;
18726;SDS011;9492;51.888;5.186;2023-04-24T09:33:12;6.77;;;2.50;;
18726;SDS011;9492;51.888;5.186;2023-04-24T09:35:42;6.67;;;2.00;;
18726;SDS011;9492;51.888;5.186;2023-04-24T09:38:08;7.73;;;2.30;;
18726;SDS011;9492;51.888;5.186;2023-04-24T09:40:35;6.20;;;2.20;;
18726;SDS011;9492;51.888;5.186;2023-04-24T09:43:01;6.33;;;2.17;;
18726;SDS011;9492;51.888;5.186;2023-04-24T09:45:28;6.33;;;2.00;;
18726;SDS011;9492;51.888;5.186;2023-04-24T09:47:54;5.10;;;2.03;;
18726;SDS011;9492;51.888;5.186;2023-04-24T09:50:22;4.90;;;1.90;;
18726;SDS011;9492;51.888;5.186;2023-04-24T09:52:58;3.63;;;2.03;;
18726;SDS011;9492;51.888;5.186;2023-04-24T09:55:25;4.70;;;2.20;;
18726;SDS011;9492;51.888;5.186;2023-04-24T09:57:52;8.43;;;2.50;;
18726;SDS011;9492;51.888;5.186;2023-04-24T10:00:21;4.37;;;1.60;;
18726;SDS011;9492;51.888;5.186;2023-04-24T10:02:51;7.77;;;1.97;;
18726;SDS011;9492;51.888;5.186;2023-04-24T10:05:22;3.87;;;2.00;;
18726;SDS011;9492;51.888;5.186;2023-04-24T10:07:48;4.37;;;1.87;;
18726;SDS011;9492;51.888;5.186;2023-04-24T10:10:14;2.13;;;1.40;;
18726;SDS011;9492;51.888;5.186;2023-04-24T10:12:41;2.30;;;1.10;;
18726;SDS011;9492;51.888;5.186;2023-04-24T10:15:07;2.20;;;1.00;;
18726;SDS011;9492;51.888;5.186;2023-04-24T10:17:37;3.57;;;1.30;;
18726;SDS011;9492;51.888;5.186;2023-04-24T10:20:03;3.40;;;1.10;;
18726;SDS011;9492;51.888;5.186;2023-04-24T10:22:31;2.30;;;1.40;;
18726;SDS011;9492;51.888;5.186;2023-04-24T10:24:57;4.07;;;1.40;;
18726;SDS011;9492;51.888;5.186;2023-04-24T10:27:24;2.77;;;1.20;;
18726;SDS011;9492;51.888;5.186;2023-04-24T10:29:52;4.03;;;1.37;;
18726;SDS011;9492;51.888;5.186;2023-04-24T10:32:18;6.03;;;1.30;;
18726;SDS011;9492;51.888;5.186;2023-04-24T10:34:44;3.67;;;2.00;;
18726;SDS011;9492;51.888;5.186;2023-04-24T10:37:10;5.70;;;1.60;;
18726;SDS011;9492;51.888;5.186;2023-04-24T10:39:38;2.73;;;1.10;;
18726;SDS011;9492;51.888;5.186;2023-04-24T10:42:15;2.90;;;1.20;;
18726;SDS011;9492;51.888;5.186;2023-04-24T10:44:41;5.07;;;1.50;;
18726;SDS011;9492;51.888;5.186;2023-04-24T10:47:12;3.53;;;1.30;;
18726;SDS011;9492;51.888;5.186;2023-04-24T10:49:39;4.33;;;1.40;;
18726;SDS011;9492;51.888;5.186;2023-04-24T10:52:05;4.63;;;1.20;;
18726;SDS011;9492;51.888;5.186;2023-04-24T11:00:15;2.87;;;1.13;;
18726;SDS011;9492;51.888;5.186;2023-04-24T11:02:41;1.87;;;1.00;;
18726;SDS011;9492;51.888;5.186;2023-04-24T11:05:17;5.33;;;1.27;;
18726;SDS011;9492;51.888;5.186;2023-04-24T11:10:28;3.87;;;1.20;;
18726;SDS011;9492;51.888;5.186;2023-04-24T11:12:54;8.10;;;1.50;;
18726;SDS011;9492;51.888;5.186;2023-04-24T11:15:20;3.80;;;1.00;;
18726;SDS011;9492;51.888;5.186;2023-04-24T11:17:46;1.63;;;0.80;;
18726;SDS011;9492;51.888;5.186;2023-04-24T11:20:16;3.77;;;1.30;;
18726;SDS011;9492;51.888;5.186;2023-04-24T11:22:42;2.83;;;1.17;;
18726;SDS011;9492;51.888;5.186;2023-04-24T11:25:09;2.60;;;1.00;;
18726;SDS011;9492;51.888;5.186;2023-04-24T11:27:43;2.27;;;1.10;;
18726;SDS011;9492;51.888;5.186;2023-04-24T11:30:11;1.10;;;0.80;;
18726;SDS011;9492;51.888;5.186;2023-04-24T11:32:41;2.83;;;0.90;;
18726;SDS011;9492;51.888;5.186;2023-04-24T11:35:18;4.83;;;0.93;;
18726;SDS011;9492;51.888;5.186;2023-04-24T11:37:46;3.57;;;1.53;;
18726;SDS011;9492;51.888;5.186;2023-04-24T11:40:14;2.90;;;1.10;;
18726;SDS011;9492;51.888;5.186;2023-04-24T11:42:46;3.43;;;1.37;;
18726;SDS011;9492;51.888;5.186;2023-04-24T11:45:13;4.17;;;1.57;;
18726;SDS011;9492;51.888;5.186;2023-04-24T11:47:39;4.47;;;1.40;;
18726;SDS011;9492;51.888;5.186;2023-04-24T11:50:07;4.37;;;1.30;;
18726;SDS011;9492;51.888;5.186;2023-04-24T11:52:33;5.63;;;1.67;;
18726;SDS011;9492;51.888;5.186;2023-04-24T11:55:02;5.53;;;1.37;;
18726;SDS011;9492;51.888;5.186;2023-04-24T11:57:28;4.70;;;1.50;;
18726;SDS011;9492;51.888;5.186;2023-04-24T11:59:59;3.13;;;1.40;;
18726;SDS011;9492;51.888;5.186;2023-04-24T12:02:26;2.77;;;1.17;;
18726;SDS011;9492;51.888;5.186;2023-04-24T12:04:52;4.87;;;1.47;;
18726;SDS011;9492;51.888;5.186;2023-04-24T12:07:19;5.37;;;1.20;;
18726;SDS011;9492;51.888;5.186;2023-04-24T12:09:50;3.50;;;1.63;;
18726;SDS011;9492;51.888;5.186;2023-04-24T12:12:20;5.70;;;1.70;;
18726;SDS011;9492;51.888;5.186;2023-04-24T12:14:50;3.30;;;1.50;;
18726;SDS011;9492;51.888;5.186;2023-04-24T12:17:22;4.90;;;1.67;;
18726;SDS011;9492;51.888;5.186;2023-04-24T12:19:49;2.90;;;1.83;;
18726;SDS011;9492;51.888;5.186;2023-04-24T12:22:15;3.13;;;1.80;;
18726;SDS011;9492;51.888;5.186;2023-04-24T12:27:23;1.63;;;0.70;;
18726;SDS011;9492;51.888;5.186;2023-04-24T12:29:53;1.43;;;0.80;;
18726;SDS011;9492;51.888;5.186;2023-04-24T12:32:19;1.17;;;0.87;;
18726;SDS011;9492;51.888;5.186;2023-04-24T12:34:45;3.67;;;0.73;;
18726;SDS011;9492;51.888;5.186;2023-04-24T12:37:11;1.73;;;1.00;;
18726;SDS011;9492;51.888;5.186;2023-04-24T12:39:37;2.73;;;1.10;;
18726;SDS011;9492;51.888;5.186;2023-04-24T12:42:03;4.33;;;1.20;;
18726;SDS011;9492;51.888;5.186;2023-04-24T12:44:30;3.87;;;1.37;;
18726;SDS011;9492;51.888;5.186;2023-04-24T12:46:56;3.60;;;1.53;;
18726;SDS011;9492;51.888;5.186;2023-04-24T12:49:22;2.97;;;1.57;;
18726;SDS011;9492;51.888;5.186;2023-04-24T12:51:48;2.53;;;1.40;;
18726;SDS011;9492;51.888;5.186;2023-04-24T12:54:14;1.53;;;1.07;;
18726;SDS011;9492;51.888;5.186;2023-04-24T12:56:40;3.43;;;1.83;;
18726;SDS011;9492;51.888;5.186;2023-04-24T12:59:06;3.70;;;1.83;;
18726;SDS011;9492;51.888;5.186;2023-04-24T13:01:32;5.80;;;2.00;;
18726;SDS011;9492;51.888;5.186;2023-04-24T13:03:58;4.67;;;1.40;;
18726;SDS011;9492;51.888;5.186;2023-04-24T13:06:24;4.47;;;1.97;;
18726;SDS011;9492;51.888;5.186;2023-04-24T13:08:51;6.70;;;1.97;;
18726;SDS011;9492;51.888;5.186;2023-04-24T13:11:17;5.07;;;1.80;;
18726;SDS011;9492;51.888;5.186;2023-04-24T13:13:43;5.47;;;2.30;;
18726;SDS011;9492;51.888;5.186;2023-04-24T13:16:09;3.50;;;1.50;;
18726;SDS011;9492;51.888;5.186;2023-04-24T13:18:35;3.13;;;1.53;;
18726;SDS011;9492;51.888;5.186;2023-04-24T13:21:01;4.53;;;2.00;;
18726;SDS011;9492;51.888;5.186;2023-04-24T13:23:27;3.23;;;1.43;;
18726;SDS011;9492;51.888;5.186;2023-04-24T13:25:54;8.40;;;2.37;;
18726;SDS011;9492;51.888;5.186;2023-04-24T13:28:23;4.10;;;1.60;;
18726;SDS011;9492;51.888;5.186;2023-04-24T13:30:50;7.63;;;2.43;;
18726;SDS011;9492;51.888;5.186;2023-04-24T13:33:16;9.40;;;2.20;;
18726;SDS011;9492;51.888;5.186;2023-04-24T13:35:42;5.60;;;2.17;;
18726;SDS011;9492;51.888;5.186;2023-04-24T13:38:08;4.97;;;2.13;;
18726;SDS011;9492;51.888;5.186;2023-04-24T13:40:34;9.60;;;2.90;;
18726;SDS011;9492;51.888;5.186;2023-04-24T13:43:00;10.53;;;2.50;;
18726;SDS011;9492;51.888;5.186;2023-04-24T13:45:26;5.83;;;2.50;;
18726;SDS011;9492;51.888;5.186;2023-04-24T13:47:52;8.30;;;2.30;;
18726;SDS011;9492;51.888;5.186;2023-04-24T13:50:19;8.83;;;2.83;;
18726;SDS011;9492;51.888;5.186;2023-04-24T13:52:45;7.90;;;2.20;;
18726;SDS011;9492;51.888;5.186;2023-04-24T13:55:11;8.40;;;2.33;;
18726;SDS011;9492;51.888;5.186;2023-04-24T13:57:37;4.33;;;2.30;;
18726;SDS011;9492;51.888;5.186;2023-04-24T14:00:03;6.27;;;2.60;;
18726;SDS011;9492;51.888;5.186;2023-04-24T14:02:34;4.60;;;2.23;;
18726;SDS011;9492;51.888;5.186;2023-04-24T14:05:00;8.10;;;2.43;;
18726;SDS011;9492;51.888;5.186;2023-04-24T14:07:28;8.60;;;2.43;;
18726;SDS011;9492;51.888;5.186;2023-04-24T14:09:54;9.67;;;2.93;;
18726;SDS011;9492;51.888;5.186;2023-04-24T14:12:20;5.10;;;2.60;;
18726;SDS011;9492;51.888;5.186;2023-04-24T14:14:46;6.30;;;2.83;;
18726;SDS011;9492;51.888;5.186;2023-04-24T14:17:13;12.13;;;3.60;;
18726;SDS011;9492;51.888;5.186;2023-04-24T14:19:39;10.27;;;3.20;;
18726;SDS011;9492;51.888;5.186;2023-04-24T14:22:05;8.43;;;2.70;;
18726;SDS011;9492;51.888;5.186;2023-04-24T14:24:31;9.77;;;3.13;;
18726;SDS011;9492;51.888;5.186;2023-04-24T14:26:57;6.03;;;2.27;;
18726;SDS011;9492;51.888;5.186;2023-04-24T14:29:23;9.17;;;2.70;;
18726;SDS011;9492;51.888;5.186;2023-04-24T14:31:50;7.03;;;2.83;;
18726;SDS011;9492;51.888;5.186;2023-04-24T14:34:16;6.80;;;2.27;;
18726;SDS011;9492;51.888;5.186;2023-04-24T14:36:43;6.97;;;2.47;;
18726;SDS011;9492;51.888;5.186;2023-04-24T14:39:09;8.73;;;2.63;;
18726;SDS011;9492;51.888;5.186;2023-04-24T14:41:35;7.87;;;2.77;;
18726;SDS011;9492;51.888;5.186;2023-04-24T14:44:02;7.07;;;2.57;;
18726;SDS011;9492;51.888;5.186;2023-04-24T14:46:29;7.47;;;2.63;;
18726;SDS011;9492;51.888;5.186;2023-04-24T14:48:55;8.27;;;3.03;;
18726;SDS011;9492;51.888;5.186;2023-04-24T14:51:21;6.63;;;2.33;;
18726;SDS011;9492;51.888;5.186;2023-04-24T14:53:47;7.53;;;2.20;;
18726;SDS011;9492;51.888;5.186;2023-04-24T14:56:14;7.13;;;3.07;;
18726;SDS011;9492;51.888;5.186;2023-04-24T14:58:40;6.83;;;2.47;;
18726;SDS011;9492;51.888;5.186;2023-04-24T15:01:06;7.63;;;2.13;;
18726;SDS011;9492;51.888;5.186;2023-04-24T15:03:32;5.77;;;2.67;;
18726;SDS011;9492;51.888;5.186;2023-04-24T15:05:57;6.63;;;2.20;;
18726;SDS011;9492;51.888;5.186;2023-04-24T15:08:23;7.40;;;2.80;;